createdAt,value
2018-11-14T00:03:20.980Z,7.90
2018-11-14T00:08:14.886Z,7.80
2018-11-14T00:13:08.823Z,7.80
2018-11-14T00:18:02.093Z,7.80
2018-11-14T00:22:55.384Z,7.70
2018-11-14T00:27:48.680Z,7.70
2018-11-14T00:32:42.898Z,7.70
2018-11-14T00:37:36.154Z,7.60
2018-11-14T00:42:29.470Z,7.60
2018-11-14T00:47:22.738Z,7.60
2018-11-14T00:52:15.990Z,7.60
2018-11-14T00:57:09.247Z,7.60
2018-11-14T01:02:02.720Z,7.60
2018-11-14T01:06:55.842Z,7.50
2018-11-14T01:11:49.061Z,7.50
2018-11-14T01:16:42.349Z,7.50
2018-11-14T01:21:35.665Z,7.50
2018-11-14T01:26:28.847Z,7.60
2018-11-14T01:31:22.094Z,7.60
2018-11-14T01:36:15.456Z,7.60
2018-11-14T01:41:08.823Z,7.70
2018-11-14T01:46:02.124Z,7.50
2018-11-14T01:50:55.443Z,7.50
2018-11-14T01:55:48.674Z,7.40
2018-11-14T02:00:42.388Z,7.40
2018-11-14T02:05:36.249Z,7.40
2018-11-14T02:10:29.507Z,7.30
2018-11-14T02:15:23.827Z,7.20
2018-11-14T02:20:18.542Z,7.20
2018-11-14T02:25:12.475Z,7.10
2018-11-14T02:30:13.040Z,7.10
2018-11-14T02:35:06.837Z,7.00
2018-11-14T02:40:00.124Z,7.00
2018-11-14T02:45:00.023Z,7.00
2018-11-14T02:49:53.339Z,6.90
2018-11-14T02:54:46.713Z,6.90
2018-11-14T02:59:39.932Z,6.80
2018-11-14T03:04:33.171Z,6.80
2018-11-14T03:09:26.420Z,6.90
2018-11-14T03:14:19.678Z,6.90
2018-11-14T03:19:12.950Z,6.80
2018-11-14T03:24:06.232Z,6.80
2018-11-14T03:28:59.494Z,6.80
2018-11-14T03:33:59.517Z,6.70
2018-11-14T03:38:52.777Z,6.70
2018-11-14T03:43:46.380Z,6.60
2018-11-14T03:48:39.652Z,6.60
2018-11-14T03:53:32.911Z,6.60
2018-11-14T03:58:26.346Z,6.60
2018-11-14T04:03:19.519Z,6.60
2018-11-14T04:08:12.816Z,6.60
2018-11-14T04:13:06.170Z,6.60
2018-11-14T04:17:59.360Z,6.50
2018-11-14T04:22:52.622Z,6.50
2018-11-14T04:27:46.683Z,6.40
2018-11-14T04:32:40.156Z,6.40
2018-11-14T04:37:33.377Z,6.30
2018-11-14T04:42:26.637Z,6.30
2018-11-14T04:47:19.905Z,6.30
2018-11-14T04:52:13.120Z,6.30
2018-11-14T04:57:06.367Z,6.20
2018-11-14T05:01:59.604Z,6.20
2018-11-14T05:06:52.862Z,6.20
2018-11-14T05:11:46.118Z,6.20
2018-11-14T05:16:39.396Z,6.20
2018-11-14T05:21:33.324Z,6.20
2018-11-14T05:26:26.633Z,6.10
2018-11-14T05:31:19.877Z,6.10
2018-11-14T05:36:13.131Z,6.00
2018-11-14T05:41:06.480Z,6.10
2018-11-14T05:45:59.782Z,6.10
2018-11-14T05:50:53.010Z,6.00
2018-11-14T05:55:46.255Z,6.00
2018-11-14T06:00:39.530Z,6.10
2018-11-14T06:05:32.811Z,6.00
2018-11-14T06:10:26.286Z,6.00
2018-11-14T06:15:20.227Z,6.00
2018-11-14T06:20:14.778Z,6.00
2018-11-14T06:25:25.403Z,6.00
2018-11-14T06:30:19.206Z,5.90
2018-11-14T06:35:12.508Z,6.00
2018-11-14T06:40:08.521Z,6.00
2018-11-14T06:45:01.786Z,6.00
2018-11-14T06:49:55.111Z,6.00
2018-11-14T06:54:48.351Z,5.90
2018-11-14T06:59:41.651Z,6.00
2018-11-14T07:04:34.907Z,6.00
2018-11-14T07:09:28.192Z,5.90
2018-11-14T07:14:21.465Z,6.00
2018-11-14T07:19:14.794Z,6.00
2018-11-14T07:24:08.266Z,6.00
2018-11-14T07:29:01.562Z,6.10
2018-11-14T07:33:54.828Z,6.30
2018-11-14T07:38:49.271Z,7.00
2018-11-14T07:43:43.817Z,7.50
2018-11-14T07:48:37.590Z,7.80
2018-11-14T07:53:30.957Z,7.40
2018-11-14T07:58:24.250Z,6.90
2018-11-14T08:03:17.555Z,6.60
2018-11-14T08:08:10.819Z,6.60
2018-11-14T08:13:04.335Z,6.60
2018-11-14T08:17:57.670Z,6.60
2018-11-14T08:22:51.405Z,6.60
2018-11-14T08:27:44.666Z,6.70
2018-11-14T08:32:38.595Z,6.80
2018-11-14T08:37:31.829Z,7.00
2018-11-14T08:42:25.202Z,6.90
2018-11-14T08:47:18.475Z,7.00
2018-11-14T08:52:12.265Z,7.20
2018-11-14T08:57:05.858Z,7.20
2018-11-14T09:01:59.788Z,7.40
2018-11-14T09:06:53.658Z,7.60
2018-11-14T09:11:46.913Z,7.80
2018-11-14T09:16:40.206Z,7.80
2018-11-14T09:21:33.481Z,7.50
2018-11-14T09:26:26.758Z,7.60
2018-11-14T09:31:20.053Z,7.80
2018-11-14T09:36:13.360Z,7.80
2018-11-14T09:41:07.325Z,8.00
2018-11-14T09:46:00.731Z,7.90
2018-11-14T09:50:53.979Z,8.10
2018-11-14T09:55:47.309Z,8.30
2018-11-14T10:00:40.627Z,8.30
2018-11-14T10:05:33.939Z,8.30
2018-11-14T10:10:27.206Z,8.40
2018-11-14T10:15:21.810Z,8.40
2018-11-14T10:20:16.393Z,8.20
2018-11-14T10:25:10.340Z,8.40
2018-11-14T10:30:04.236Z,8.60
2018-11-14T10:34:57.491Z,9.20
2018-11-14T10:39:50.840Z,9.00
2018-11-14T10:44:44.520Z,8.60
2018-11-14T10:49:37.784Z,8.90
2018-11-14T10:54:31.109Z,9.30
2018-11-14T10:59:25.368Z,9.40
2018-11-14T11:04:24.968Z,9.40
2018-11-14T11:09:33.198Z,9.70
2018-11-14T11:14:32.216Z,10.00
2018-11-14T11:19:26.900Z,10.20
2018-11-14T11:24:21.584Z,10.30
2018-11-14T11:29:14.868Z,10.30
2018-11-14T11:34:08.961Z,10.40
2018-11-14T11:39:02.492Z,10.50
2018-11-14T11:43:56.139Z,10.50
2018-11-14T11:48:49.434Z,10.80
2018-11-14T11:53:43.004Z,11.10
2018-11-14T11:58:36.248Z,11.20
2018-11-14T12:03:29.744Z,11.20
2018-11-14T12:08:23.074Z,11.10
2018-11-14T12:13:16.436Z,11.30
2018-11-14T12:18:09.754Z,11.50
2018-11-14T12:23:03.045Z,11.80
2018-11-14T12:27:56.371Z,12.00
2018-11-14T12:32:49.717Z,11.90
2018-11-14T12:37:43.016Z,11.90
2018-11-14T12:42:36.419Z,11.90
2018-11-14T12:47:29.734Z,11.90
2018-11-14T12:52:23.096Z,12.00
2018-11-14T12:57:16.357Z,12.20
2018-11-14T13:02:09.685Z,12.10
2018-11-14T13:07:03.139Z,12.10
2018-11-14T13:12:00.676Z,12.30
2018-11-14T13:16:58.602Z,12.40
2018-11-14T13:21:55.419Z,12.30
2018-11-14T13:26:53.178Z,12.20
2018-11-14T13:31:51.260Z,12.30
2018-11-14T13:36:49.143Z,12.30
2018-11-14T13:41:47.395Z,12.40
2018-11-14T13:46:45.283Z,12.40
2018-11-14T13:51:43.114Z,12.40
2018-11-14T13:56:40.951Z,12.20
2018-11-14T14:01:38.835Z,12.20
2018-11-14T14:06:37.535Z,12.20
2018-11-14T14:17:04.645Z,12.10
2018-11-14T14:22:02.346Z,12.10
2018-11-14T14:26:59.145Z,12.10
2018-11-14T14:31:57.773Z,12.00
2018-11-14T14:36:55.683Z,12.00
2018-11-14T14:41:51.650Z,12.00
2018-11-14T14:46:49.220Z,12.00
2018-11-14T14:51:42.525Z,12.00
2018-11-14T14:56:36.407Z,11.90
2018-11-14T15:01:29.668Z,11.80
2018-11-14T15:06:22.935Z,11.70
2018-11-14T15:11:16.293Z,11.70
2018-11-14T15:16:09.605Z,11.70
2018-11-14T15:21:02.909Z,11.50
2018-11-14T15:25:58.077Z,11.50
2018-11-14T15:30:51.519Z,11.40
2018-11-14T15:35:48.186Z,11.20
2018-11-14T15:40:41.478Z,11.10
2018-11-14T15:45:38.107Z,11.10
2018-11-14T15:50:31.540Z,11.00
2018-11-14T15:55:24.895Z,10.90
2018-11-14T16:00:20.689Z,10.80
2018-11-14T16:05:15.600Z,10.80
2018-11-14T16:10:10.907Z,10.60
2018-11-14T16:15:05.067Z,10.60
2018-11-14T16:19:58.344Z,10.50
2018-11-14T16:24:51.652Z,10.50
2018-11-14T16:29:45.004Z,10.40
2018-11-14T16:34:38.277Z,10.30
2018-11-14T16:39:31.538Z,10.20
2018-11-14T16:44:25.720Z,10.20
2018-11-14T16:49:18.988Z,10.10
2018-11-14T16:54:12.789Z,10.10
2018-11-14T16:59:06.019Z,10.00
2018-11-14T17:03:59.270Z,9.90
2018-11-14T17:08:52.531Z,9.80
2018-11-14T17:13:45.815Z,9.70
2018-11-14T17:18:39.108Z,9.70
2018-11-14T17:23:35.269Z,9.60
2018-11-14T17:28:28.574Z,9.50
2018-11-14T17:33:23.439Z,9.40
2018-11-14T17:38:16.648Z,9.40
2018-11-14T17:43:09.897Z,9.20
2018-11-14T17:48:03.277Z,9.20
2018-11-14T17:52:57.284Z,9.10
2018-11-14T17:57:50.642Z,9.00
2018-11-14T18:02:44.602Z,9.00
2018-11-14T18:07:37.852Z,9.00
2018-11-14T18:12:31.116Z,8.90
2018-11-14T18:17:24.533Z,8.80
2018-11-14T18:22:18.492Z,8.80
2018-11-14T18:27:11.843Z,8.70
2018-11-14T18:32:06.110Z,8.60
2018-11-14T18:36:59.401Z,8.60
2018-11-14T18:41:52.686Z,8.50
2018-11-14T18:46:45.986Z,8.40
2018-11-14T18:51:39.274Z,8.40
2018-11-14T18:56:32.712Z,8.20
2018-11-14T19:01:25.991Z,8.20
2018-11-14T19:06:19.297Z,8.10
2018-11-14T19:11:12.555Z,8.00
2018-11-14T19:16:06.035Z,7.90
2018-11-14T19:20:59.321Z,7.80
2018-11-14T19:25:52.623Z,7.70
2018-11-14T19:30:45.963Z,7.60
2018-11-14T19:35:39.227Z,7.60
2018-11-14T19:40:34.115Z,7.50
2018-11-14T19:45:28.869Z,7.50
2018-11-14T19:50:22.983Z,7.40
2018-11-14T19:55:17.785Z,7.30
2018-11-14T20:00:22.690Z,7.30
2018-11-14T20:05:16.676Z,7.20
2018-11-14T20:10:12.900Z,7.20
2018-11-14T20:15:08.487Z,7.10
2018-11-14T20:20:01.752Z,7.10
2018-11-14T20:24:55.648Z,7.10
2018-11-14T20:29:48.988Z,7.10
2018-11-14T20:34:42.331Z,7.00
2018-11-14T20:39:35.633Z,7.00
2018-11-14T20:44:28.981Z,7.00
2018-11-14T20:49:22.284Z,7.00
2018-11-14T20:54:15.553Z,6.90
2018-11-14T20:59:08.809Z,6.90
2018-11-14T21:04:02.110Z,6.80
2018-11-14T21:08:55.392Z,6.80
2018-11-14T21:13:48.696Z,6.70
2018-11-14T21:18:42.036Z,6.60
2018-11-14T21:23:35.307Z,6.60
2018-11-14T21:28:28.561Z,6.50
2018-11-14T21:33:21.873Z,6.50
2018-11-14T21:38:15.214Z,6.50
2018-11-14T21:43:08.517Z,6.40
2018-11-14T21:48:07.611Z,6.40
2018-11-14T21:53:01.728Z,6.40
2018-11-14T21:57:54.949Z,6.40
2018-11-14T22:02:49.697Z,6.40
2018-11-14T22:07:42.963Z,6.50
2018-11-14T22:12:36.245Z,6.60
2018-11-14T22:17:29.506Z,6.70
2018-11-14T22:22:22.862Z,6.80
2018-11-14T22:27:16.785Z,6.80
2018-11-14T22:32:10.045Z,7.00
2018-11-14T22:37:03.308Z,7.00
2018-11-14T22:41:56.607Z,7.10
2018-11-14T22:46:49.914Z,7.10
2018-11-14T22:51:43.180Z,7.20
2018-11-14T22:56:36.435Z,7.30
2018-11-14T23:01:29.753Z,7.30
2018-11-14T23:06:22.988Z,7.30
2018-11-14T23:11:16.201Z,7.40
2018-11-14T23:16:09.530Z,7.40
2018-11-14T23:21:02.811Z,7.50
2018-11-14T23:25:56.179Z,7.40
2018-11-14T23:30:49.494Z,7.40
2018-11-14T23:35:42.787Z,7.50
2018-11-14T23:40:36.087Z,7.40
2018-11-14T23:45:30.296Z,7.30
2018-11-14T23:50:24.730Z,7.30
2018-11-14T23:55:18.789Z,7.40
